sensor_id;sensor_type;location;lat;lon;timestamp;temperature;humidity
1948;DHT22;974;52.400;9.818;2022-09-09T00:00:18;14.90;99.90
1948;DHT22;974;52.400;9.818;2022-09-09T00:08:20;15.00;99.90
1948;DHT22;974;52.400;9.818;2022-09-09T00:10:54;15.00;99.90
1948;DHT22;974;52.400;9.818;2022-09-09T00:16:04;15.00;99.90
1948;DHT22;974;52.400;9.818;2022-09-09T00:21:17;15.00;99.90
1948;DHT22;974;52.400;9.818;2022-09-09T00:24:10;14.90;99.90
1948;DHT22;974;52.400;9.818;2022-09-09T00:26:45;14.90;99.90
1948;DHT22;974;52.400;9.818;2022-09-09T00:31:38;14.90;99.90
1948;DHT22;974;52.400;9.818;2022-09-09T00:34:18;14.90;99.90
1948;DHT22;974;52.400;9.818;2022-09-09T00:36:45;14.90;99.90
1948;DHT22;974;52.400;9.818;2022-09-09T00:39:41;14.90;99.90
1948;DHT22;974;52.400;9.818;2022-09-09T00:42:25;14.90;99.90
1948;DHT22;974;52.400;9.818;2022-09-09T00:47:50;14.80;99.90
1948;DHT22;974;52.400;9.818;2022-09-09T00:53:31;14.80;99.90
1948;DHT22;974;52.400;9.818;2022-09-09T00:56:03;14.80;99.90
1948;DHT22;974;52.400;9.818;2022-09-09T00:58:34;14.70;99.90
1948;DHT22;974;52.400;9.818;2022-09-09T01:01:05;14.70;99.90
1948;DHT22;974;52.400;9.818;2022-09-09T01:03:56;14.60;99.90
1948;DHT22;974;52.400;9.818;2022-09-09T01:06:33;14.50;99.90
1948;DHT22;974;52.400;9.818;2022-09-09T01:12:02;14.40;99.90
1948;DHT22;974;52.400;9.818;2022-09-09T01:17:15;14.30;99.90
1948;DHT22;974;52.400;9.818;2022-09-09T01:22:39;14.40;99.90
1948;DHT22;974;52.400;9.818;2022-09-09T01:28:10;14.20;99.90
1948;DHT22;974;52.400;9.818;2022-09-09T01:30:40;14.20;99.90
1948;DHT22;974;52.400;9.818;2022-09-09T01:33:12;14.20;99.90
1948;DHT22;974;52.400;9.818;2022-09-09T01:35:54;14.20;99.90
1948;DHT22;974;52.400;9.818;2022-09-09T01:38:22;14.10;99.90
1948;DHT22;974;52.400;9.818;2022-09-09T01:40:49;14.10;99.90
1948;DHT22;974;52.400;9.818;2022-09-09T01:43:21;14.10;99.90
1948;DHT22;974;52.400;9.818;2022-09-09T01:45:49;14.00;99.90
1948;DHT22;974;52.400;9.818;2022-09-09T01:48:18;14.00;99.90
1948;DHT22;974;52.400;9.818;2022-09-09T01:50:44;14.00;99.90
1948;DHT22;974;52.400;9.818;2022-09-09T01:53:11;13.80;99.90
1948;DHT22;974;52.400;9.818;2022-09-09T01:55:40;13.80;99.90
1948;DHT22;974;52.400;9.818;2022-09-09T01:58:46;13.80;99.90
1948;DHT22;974;52.400;9.818;2022-09-09T02:03:40;13.80;99.90
1948;DHT22;974;52.400;9.818;2022-09-09T02:06:33;13.70;99.90
1948;DHT22;974;52.400;9.818;2022-09-09T02:09:02;13.70;99.90
1948;DHT22;974;52.400;9.818;2022-09-09T02:11:30;13.60;99.90
1948;DHT22;974;52.400;9.818;2022-09-09T02:14:03;13.70;99.90
1948;DHT22;974;52.400;9.818;2022-09-09T02:16:58;13.60;99.90
1948;DHT22;974;52.400;9.818;2022-09-09T02:19:32;13.60;99.90
1948;DHT22;974;52.400;9.818;2022-09-09T02:22:01;13.60;99.90
1948;DHT22;974;52.400;9.818;2022-09-09T02:24:30;13.50;99.90
1948;DHT22;974;52.400;9.818;2022-09-09T02:26:59;13.50;99.90
1948;DHT22;974;52.400;9.818;2022-09-09T02:29:40;13.50;99.90
1948;DHT22;974;52.400;9.818;2022-09-09T02:32:10;13.50;99.90
1948;DHT22;974;52.400;9.818;2022-09-09T02:34:42;13.60;99.90
1948;DHT22;974;52.400;9.818;2022-09-09T02:37:09;13.60;99.90
1948;DHT22;974;52.400;9.818;2022-09-09T02:39:36;13.50;99.90
1948;DHT22;974;52.400;9.818;2022-09-09T02:42:03;13.50;99.90
1948;DHT22;974;52.400;9.818;2022-09-09T02:44:29;13.50;99.90
1948;DHT22;974;52.400;9.818;2022-09-09T02:49:55;13.60;99.90
1948;DHT22;974;52.400;9.818;2022-09-09T02:52:40;13.70;99.90
1948;DHT22;974;52.400;9.818;2022-09-09T02:55:23;13.60;99.90
1948;DHT22;974;52.400;9.818;2022-09-09T02:57:50;13.60;99.90
1948;DHT22;974;52.400;9.818;2022-09-09T03:00:23;13.70;99.90
1948;DHT22;974;52.400;9.818;2022-09-09T03:02:49;13.70;99.90
1948;DHT22;974;52.400;9.818;2022-09-09T03:05:15;13.70;99.90
1948;DHT22;974;52.400;9.818;2022-09-09T03:07:41;13.70;99.90
1948;DHT22;974;52.400;9.818;2022-09-09T03:10:07;13.70;99.90
1948;DHT22;974;52.400;9.818;2022-09-09T03:12:33;13.70;99.90
1948;DHT22;974;52.400;9.818;2022-09-09T03:14:59;13.80;99.90
1948;DHT22;974;52.400;9.818;2022-09-09T03:17:24;13.80;99.90
1948;DHT22;974;52.400;9.818;2022-09-09T03:19:50;13.80;99.90
1948;DHT22;974;52.400;9.818;2022-09-09T03:22:17;13.80;99.90
1948;DHT22;974;52.400;9.818;2022-09-09T03:24:43;13.80;99.90
1948;DHT22;974;52.400;9.818;2022-09-09T03:27:08;13.90;99.90
1948;DHT22;974;52.400;9.818;2022-09-09T03:29:34;13.90;99.90
1948;DHT22;974;52.400;9.818;2022-09-09T03:32:00;14.00;99.90
1948;DHT22;974;52.400;9.818;2022-09-09T03:34:25;14.00;99.90
1948;DHT22;974;52.400;9.818;2022-09-09T03:36:51;14.10;99.90
1948;DHT22;974;52.400;9.818;2022-09-09T03:39:17;14.10;99.90
1948;DHT22;974;52.400;9.818;2022-09-09T03:41:42;14.10;99.90
1948;DHT22;974;52.400;9.818;2022-09-09T03:44:13;14.10;99.90
1948;DHT22;974;52.400;9.818;2022-09-09T03:46:38;14.10;99.90
1948;DHT22;974;52.400;9.818;2022-09-09T03:49:04;14.10;99.90
1948;DHT22;974;52.400;9.818;2022-09-09T03:51:29;14.20;99.90
1948;DHT22;974;52.400;9.818;2022-09-09T03:53:55;14.20;99.90
1948;DHT22;974;52.400;9.818;2022-09-09T03:56:23;14.20;99.90
1948;DHT22;974;52.400;9.818;2022-09-09T03:58:49;14.30;99.90
1948;DHT22;974;52.400;9.818;2022-09-09T04:01:15;14.30;99.90
1948;DHT22;974;52.400;9.818;2022-09-09T04:03:43;14.30;99.90
1948;DHT22;974;52.400;9.818;2022-09-09T04:06:11;14.30;99.90
1948;DHT22;974;52.400;9.818;2022-09-09T04:08:38;14.40;99.90
1948;DHT22;974;52.400;9.818;2022-09-09T04:11:04;14.40;99.90
1948;DHT22;974;52.400;9.818;2022-09-09T04:13:35;14.40;99.90
1948;DHT22;974;52.400;9.818;2022-09-09T04:16:03;14.50;99.90
1948;DHT22;974;52.400;9.818;2022-09-09T04:18:29;14.40;99.90
1948;DHT22;974;52.400;9.818;2022-09-09T04:20:55;14.40;99.90
1948;DHT22;974;52.400;9.818;2022-09-09T04:23:25;14.50;99.90
1948;DHT22;974;52.400;9.818;2022-09-09T04:25:54;14.50;99.90
1948;DHT22;974;52.400;9.818;2022-09-09T04:28:22;14.60;99.90
1948;DHT22;974;52.400;9.818;2022-09-09T04:30:48;14.50;99.90
1948;DHT22;974;52.400;9.818;2022-09-09T04:33:14;14.50;99.90
1948;DHT22;974;52.400;9.818;2022-09-09T04:35:45;14.50;99.90
1948;DHT22;974;52.400;9.818;2022-09-09T04:38:10;14.50;99.90
1948;DHT22;974;52.400;9.818;2022-09-09T04:40:36;14.50;99.90
1948;DHT22;974;52.400;9.818;2022-09-09T04:43:03;14.50;99.90
1948;DHT22;974;52.400;9.818;2022-09-09T04:45:30;14.40;99.90
1948;DHT22;974;52.400;9.818;2022-09-09T04:47:56;14.50;99.90
1948;DHT22;974;52.400;9.818;2022-09-09T04:50:21;14.50;99.90
1948;DHT22;974;52.400;9.818;2022-09-09T04:52:47;14.50;99.90
1948;DHT22;974;52.400;9.818;2022-09-09T04:55:13;14.40;99.90
1948;DHT22;974;52.400;9.818;2022-09-09T04:57:39;14.40;99.90
1948;DHT22;974;52.400;9.818;2022-09-09T05:00:05;14.50;99.90
1948;DHT22;974;52.400;9.818;2022-09-09T05:02:31;14.50;99.90
1948;DHT22;974;52.400;9.818;2022-09-09T05:04:57;14.50;99.90
1948;DHT22;974;52.400;9.818;2022-09-09T05:07:23;14.50;99.90
1948;DHT22;974;52.400;9.818;2022-09-09T05:09:49;14.50;99.90
1948;DHT22;974;52.400;9.818;2022-09-09T05:12:16;14.60;99.90
1948;DHT22;974;52.400;9.818;2022-09-09T05:14:42;14.50;99.90
1948;DHT22;974;52.400;9.818;2022-09-09T05:17:09;14.60;99.90
1948;DHT22;974;52.400;9.818;2022-09-09T05:19:35;14.70;99.90
1948;DHT22;974;52.400;9.818;2022-09-09T05:22:00;14.60;99.90
1948;DHT22;974;52.400;9.818;2022-09-09T05:24:26;14.60;99.90
1948;DHT22;974;52.400;9.818;2022-09-09T05:26:52;14.60;99.90
1948;DHT22;974;52.400;9.818;2022-09-09T05:29:17;14.70;99.90
1948;DHT22;974;52.400;9.818;2022-09-09T05:31:45;14.70;99.90
1948;DHT22;974;52.400;9.818;2022-09-09T05:34:10;14.70;99.90
1948;DHT22;974;52.400;9.818;2022-09-09T05:36:36;14.70;99.90
1948;DHT22;974;52.400;9.818;2022-09-09T05:39:02;14.70;99.90
1948;DHT22;974;52.400;9.818;2022-09-09T05:41:28;14.70;99.90
1948;DHT22;974;52.400;9.818;2022-09-09T05:43:54;14.80;99.90
1948;DHT22;974;52.400;9.818;2022-09-09T05:46:21;14.80;99.90
1948;DHT22;974;52.400;9.818;2022-09-09T05:48:49;14.80;99.90
1948;DHT22;974;52.400;9.818;2022-09-09T05:51:23;14.80;99.90
1948;DHT22;974;52.400;9.818;2022-09-09T05:53:50;14.80;99.90
1948;DHT22;974;52.400;9.818;2022-09-09T05:56:21;14.90;99.90
1948;DHT22;974;52.400;9.818;2022-09-09T05:58:48;14.90;99.90
1948;DHT22;974;52.400;9.818;2022-09-09T06:01:19;14.80;99.90
1948;DHT22;974;52.400;9.818;2022-09-09T06:03:45;14.90;99.90
1948;DHT22;974;52.400;9.818;2022-09-09T06:06:14;14.90;99.90
1948;DHT22;974;52.400;9.818;2022-09-09T06:08:41;15.00;99.90
1948;DHT22;974;52.400;9.818;2022-09-09T06:11:11;15.10;99.90
1948;DHT22;974;52.400;9.818;2022-09-09T06:13:38;15.20;99.90
1948;DHT22;974;52.400;9.818;2022-09-09T06:16:04;15.20;99.90
1948;DHT22;974;52.400;9.818;2022-09-09T06:18:30;15.20;99.90
1948;DHT22;974;52.400;9.818;2022-09-09T06:21:01;15.30;99.90
1948;DHT22;974;52.400;9.818;2022-09-09T06:23:27;15.30;99.90
1948;DHT22;974;52.400;9.818;2022-09-09T06:26:23;15.40;99.90
1948;DHT22;974;52.400;9.818;2022-09-09T06:28:51;15.40;99.90
1948;DHT22;974;52.400;9.818;2022-09-09T06:31:19;15.50;99.90
1948;DHT22;974;52.400;9.818;2022-09-09T06:33:49;15.50;99.90
1948;DHT22;974;52.400;9.818;2022-09-09T06:36:30;15.50;99.90
1948;DHT22;974;52.400;9.818;2022-09-09T06:38:57;15.50;99.90
1948;DHT22;974;52.400;9.818;2022-09-09T06:41:25;15.50;99.90
1948;DHT22;974;52.400;9.818;2022-09-09T06:43:52;15.60;99.90
1948;DHT22;974;52.400;9.818;2022-09-09T06:46:26;15.60;99.90
1948;DHT22;974;52.400;9.818;2022-09-09T06:48:56;15.60;99.90
1948;DHT22;974;52.400;9.818;2022-09-09T06:51:27;15.70;99.90
1948;DHT22;974;52.400;9.818;2022-09-09T06:53:58;15.80;99.90
1948;DHT22;974;52.400;9.818;2022-09-09T06:56:35;15.80;99.90
1948;DHT22;974;52.400;9.818;2022-09-09T06:59:04;15.90;99.90
1948;DHT22;974;52.400;9.818;2022-09-09T07:01:32;15.90;99.90
1948;DHT22;974;52.400;9.818;2022-09-09T07:03:59;15.90;99.90
1948;DHT22;974;52.400;9.818;2022-09-09T07:06:27;15.90;99.90
1948;DHT22;974;52.400;9.818;2022-09-09T07:08:58;15.90;99.90
1948;DHT22;974;52.400;9.818;2022-09-09T07:11:26;16.00;99.90
1948;DHT22;974;52.400;9.818;2022-09-09T07:13:53;16.00;99.90
1948;DHT22;974;52.400;9.818;2022-09-09T07:16:21;16.10;99.90
1948;DHT22;974;52.400;9.818;2022-09-09T07:18:48;16.10;99.90
1948;DHT22;974;52.400;9.818;2022-09-09T07:21:15;16.10;99.90
1948;DHT22;974;52.400;9.818;2022-09-09T07:23:42;16.10;99.90
1948;DHT22;974;52.400;9.818;2022-09-09T07:26:09;16.10;99.90
1948;DHT22;974;52.400;9.818;2022-09-09T07:28:36;16.10;99.90
1948;DHT22;974;52.400;9.818;2022-09-09T07:31:02;16.10;99.90
1948;DHT22;974;52.400;9.818;2022-09-09T07:33:28;16.10;99.90
1948;DHT22;974;52.400;9.818;2022-09-09T07:36:12;16.20;99.90
1948;DHT22;974;52.400;9.818;2022-09-09T07:38:40;16.20;99.90
1948;DHT22;974;52.400;9.818;2022-09-09T07:41:07;16.20;99.90
1948;DHT22;974;52.400;9.818;2022-09-09T07:43:39;16.30;99.90
1948;DHT22;974;52.400;9.818;2022-09-09T07:46:05;16.30;99.90
1948;DHT22;974;52.400;9.818;2022-09-09T07:48:32;16.40;99.90
1948;DHT22;974;52.400;9.818;2022-09-09T07:53:29;16.50;99.90
1948;DHT22;974;52.400;9.818;2022-09-09T07:56:02;16.50;99.90
1948;DHT22;974;52.400;9.818;2022-09-09T07:58:28;16.60;99.90
1948;DHT22;974;52.400;9.818;2022-09-09T08:00:54;16.60;99.90
1948;DHT22;974;52.400;9.818;2022-09-09T08:03:20;16.70;99.90
1948;DHT22;974;52.400;9.818;2022-09-09T08:05:47;16.70;99.90
1948;DHT22;974;52.400;9.818;2022-09-09T08:08:12;16.80;99.90
1948;DHT22;974;52.400;9.818;2022-09-09T08:10:38;16.90;99.90
1948;DHT22;974;52.400;9.818;2022-09-09T08:13:03;17.00;99.90
1948;DHT22;974;52.400;9.818;2022-09-09T08:15:30;17.10;99.90
1948;DHT22;974;52.400;9.818;2022-09-09T08:17:56;17.20;99.90
1948;DHT22;974;52.400;9.818;2022-09-09T08:20:21;17.30;99.90
1948;DHT22;974;52.400;9.818;2022-09-09T08:22:48;17.30;99.90
1948;DHT22;974;52.400;9.818;2022-09-09T08:25:15;17.40;99.90
1948;DHT22;974;52.400;9.818;2022-09-09T08:27:40;17.40;99.90
1948;DHT22;974;52.400;9.818;2022-09-09T08:30:06;17.30;99.90
1948;DHT22;974;52.400;9.818;2022-09-09T08:32:32;17.40;99.90
1948;DHT22;974;52.400;9.818;2022-09-09T08:34:58;17.50;99.90
1948;DHT22;974;52.400;9.818;2022-09-09T08:37:23;17.60;99.90
1948;DHT22;974;52.400;9.818;2022-09-09T08:39:49;17.70;99.90
1948;DHT22;974;52.400;9.818;2022-09-09T08:42:33;17.80;99.90
1948;DHT22;974;52.400;9.818;2022-09-09T08:50:32;17.90;99.90
1948;DHT22;974;52.400;9.818;2022-09-09T08:53:22;17.90;99.90
1948;DHT22;974;52.400;9.818;2022-09-09T08:55:56;18.00;99.90
1948;DHT22;974;52.400;9.818;2022-09-09T08:58:29;18.00;99.90
1948;DHT22;974;52.400;9.818;2022-09-09T09:01:17;18.10;99.90
1948;DHT22;974;52.400;9.818;2022-09-09T09:04:06;18.20;99.90
1948;DHT22;974;52.400;9.818;2022-09-09T09:06:49;18.20;99.90
1948;DHT22;974;52.400;9.818;2022-09-09T09:09:21;18.30;99.90
1948;DHT22;974;52.400;9.818;2022-09-09T09:11:55;18.40;99.90
1948;DHT22;974;52.400;9.818;2022-09-09T09:14:30;18.40;99.90
1948;DHT22;974;52.400;9.818;2022-09-09T09:19:26;18.40;99.90
1948;DHT22;974;52.400;9.818;2022-09-09T09:22:22;18.50;99.90
1948;DHT22;974;52.400;9.818;2022-09-09T09:24:56;18.50;99.90
1948;DHT22;974;52.400;9.818;2022-09-09T09:30:22;18.60;99.90
1948;DHT22;974;52.400;9.818;2022-09-09T09:33:15;18.50;99.90
1948;DHT22;974;52.400;9.818;2022-09-09T09:35:42;18.50;99.90
1948;DHT22;974;52.400;9.818;2022-09-09T09:38:19;18.50;99.90
1948;DHT22;974;52.400;9.818;2022-09-09T09:40:56;18.70;99.90
1948;DHT22;974;52.400;9.818;2022-09-09T09:43:35;18.80;99.90
1948;DHT22;974;52.400;9.818;2022-09-09T09:46:03;19.10;99.90
1948;DHT22;974;52.400;9.818;2022-09-09T09:48:29;19.20;99.90
1948;DHT22;974;52.400;9.818;2022-09-09T09:50:56;19.40;99.90
1948;DHT22;974;52.400;9.818;2022-09-09T09:53:34;19.50;99.90
1948;DHT22;974;52.400;9.818;2022-09-09T09:56:03;19.50;99.90
1948;DHT22;974;52.400;9.818;2022-09-09T09:58:31;19.50;99.90
1948;DHT22;974;52.400;9.818;2022-09-09T10:01:00;19.40;99.90
1948;DHT22;974;52.400;9.818;2022-09-09T10:05:54;19.50;99.90
1948;DHT22;974;52.400;9.818;2022-09-09T10:08:22;19.60;99.90
1948;DHT22;974;52.400;9.818;2022-09-09T10:19:16;19.50;99.90
1948;DHT22;974;52.400;9.818;2022-09-09T10:24:47;19.70;99.90
1948;DHT22;974;52.400;9.818;2022-09-09T10:27:27;19.70;99.90
1948;DHT22;974;52.400;9.818;2022-09-09T10:30:04;19.90;99.90
1948;DHT22;974;52.400;9.818;2022-09-09T10:35:31;20.00;99.90
1948;DHT22;974;52.400;9.818;2022-09-09T10:38:14;20.10;99.90
1948;DHT22;974;52.400;9.818;2022-09-09T10:52:38;19.80;99.90
1948;DHT22;974;52.400;9.818;2022-09-09T10:57:46;19.60;99.90
1948;DHT22;974;52.400;9.818;2022-09-09T11:00:19;19.50;99.90
1948;DHT22;974;52.400;9.818;2022-09-09T11:02:55;19.40;99.90
1948;DHT22;974;52.400;9.818;2022-09-09T11:05:29;19.30;99.90
1948;DHT22;974;52.400;9.818;2022-09-09T11:08:03;19.30;99.90
1948;DHT22;974;52.400;9.818;2022-09-09T11:10:53;19.30;99.90
1948;DHT22;974;52.400;9.818;2022-09-09T11:16:22;19.30;99.90
1948;DHT22;974;52.400;9.818;2022-09-09T11:18:49;19.30;99.90
1948;DHT22;974;52.400;9.818;2022-09-09T11:21:23;19.30;99.90
1948;DHT22;974;52.400;9.818;2022-09-09T11:23:55;19.00;99.90
1948;DHT22;974;52.400;9.818;2022-09-09T11:26:36;19.00;99.90
1948;DHT22;974;52.400;9.818;2022-09-09T11:29:27;18.90;99.90
1948;DHT22;974;52.400;9.818;2022-09-09T11:32:19;18.90;99.90
1948;DHT22;974;52.400;9.818;2022-09-09T11:40:37;18.70;99.90
1948;DHT22;974;52.400;9.818;2022-09-09T11:43:10;18.60;99.90
1948;DHT22;974;52.400;9.818;2022-09-09T11:45:38;18.50;99.90
1948;DHT22;974;52.400;9.818;2022-09-09T11:48:05;18.20;99.90
1948;DHT22;974;52.400;9.818;2022-09-09T11:50:37;18.10;99.90
1948;DHT22;974;52.400;9.818;2022-09-09T11:53:29;17.70;99.90
1948;DHT22;974;52.400;9.818;2022-09-09T11:56:07;17.30;99.90
1948;DHT22;974;52.400;9.818;2022-09-09T11:58:38;17.10;99.90
1948;DHT22;974;52.400;9.818;2022-09-09T12:04:17;16.80;99.90
1948;DHT22;974;52.400;9.818;2022-09-09T12:10:03;16.60;99.90
1948;DHT22;974;52.400;9.818;2022-09-09T12:17:51;16.50;99.90
1948;DHT22;974;52.400;9.818;2022-09-09T12:20:19;16.50;99.90
1948;DHT22;974;52.400;9.818;2022-09-09T12:23:15;16.40;99.90
1948;DHT22;974;52.400;9.818;2022-09-09T12:33:22;16.50;99.90
1948;DHT22;974;52.400;9.818;2022-09-09T12:35:57;16.80;99.90
1948;DHT22;974;52.400;9.818;2022-09-09T12:38:32;17.50;99.90
1948;DHT22;974;52.400;9.818;2022-09-09T12:40:58;17.60;99.90
1948;DHT22;974;52.400;9.818;2022-09-09T12:43:25;17.90;99.90
1948;DHT22;974;52.400;9.818;2022-09-09T12:46:00;18.20;99.90
1948;DHT22;974;52.400;9.818;2022-09-09T12:48:39;18.80;99.90
1948;DHT22;974;52.400;9.818;2022-09-09T12:51:18;20.00;99.90
1948;DHT22;974;52.400;9.818;2022-09-09T12:53:44;21.00;99.90
1948;DHT22;974;52.400;9.818;2022-09-09T12:56:20;22.10;99.90
1948;DHT22;974;52.400;9.818;2022-09-09T12:58:49;22.30;99.90
1948;DHT22;974;52.400;9.818;2022-09-09T13:01:28;22.20;99.90
1948;DHT22;974;52.400;9.818;2022-09-09T13:03:55;22.30;99.90
1948;DHT22;974;52.400;9.818;2022-09-09T13:06:26;22.30;99.90
1948;DHT22;974;52.400;9.818;2022-09-09T13:08:53;22.70;99.90
1948;DHT22;974;52.400;9.818;2022-09-09T13:11:26;23.10;99.90
1948;DHT22;974;52.400;9.818;2022-09-09T13:13:55;23.40;99.90
1948;DHT22;974;52.400;9.818;2022-09-09T13:16:26;23.80;99.90
1948;DHT22;974;52.400;9.818;2022-09-09T13:18:58;24.00;99.90
1948;DHT22;974;52.400;9.818;2022-09-09T13:21:50;23.60;99.90
1948;DHT22;974;52.400;9.818;2022-09-09T13:24:30;23.00;99.90
1948;DHT22;974;52.400;9.818;2022-09-09T13:26:57;22.30;99.90
1948;DHT22;974;52.400;9.818;2022-09-09T13:29:24;21.90;99.90
1948;DHT22;974;52.400;9.818;2022-09-09T13:31:50;21.40;99.90
1948;DHT22;974;52.400;9.818;2022-09-09T13:34:28;21.00;99.90
1948;DHT22;974;52.400;9.818;2022-09-09T13:37:02;20.70;99.90
1948;DHT22;974;52.400;9.818;2022-09-09T13:39:28;20.40;99.90
1948;DHT22;974;52.400;9.818;2022-09-09T13:41:54;20.10;99.90
1948;DHT22;974;52.400;9.818;2022-09-09T13:44:27;19.80;99.90
1948;DHT22;974;52.400;9.818;2022-09-09T13:47:03;19.50;99.90
1948;DHT22;974;52.400;9.818;2022-09-09T13:49:30;19.30;99.90
1948;DHT22;974;52.400;9.818;2022-09-09T13:52:09;19.20;99.90
1948;DHT22;974;52.400;9.818;2022-09-09T13:54:36;19.10;99.90
1948;DHT22;974;52.400;9.818;2022-09-09T13:57:02;19.10;99.90
1948;DHT22;974;52.400;9.818;2022-09-09T13:59:27;18.90;99.90
1948;DHT22;974;52.400;9.818;2022-09-09T14:01:53;18.80;99.90
1948;DHT22;974;52.400;9.818;2022-09-09T14:04:19;18.70;99.90
1948;DHT22;974;52.400;9.818;2022-09-09T14:06:48;18.70;99.90
1948;DHT22;974;52.400;9.818;2022-09-09T14:09:16;18.60;99.90
1948;DHT22;974;52.400;9.818;2022-09-09T14:11:43;18.60;99.90
1948;DHT22;974;52.400;9.818;2022-09-09T14:14:09;18.60;99.90
1948;DHT22;974;52.400;9.818;2022-09-09T14:16:37;18.70;99.90
1948;DHT22;974;52.400;9.818;2022-09-09T14:19:03;18.80;99.90
1948;DHT22;974;52.400;9.818;2022-09-09T14:21:29;18.90;99.90
1948;DHT22;974;52.400;9.818;2022-09-09T14:23:55;18.90;99.90
1948;DHT22;974;52.400;9.818;2022-09-09T14:26:21;18.90;99.90
1948;DHT22;974;52.400;9.818;2022-09-09T14:28:47;18.90;99.90
1948;DHT22;974;52.400;9.818;2022-09-09T14:31:13;19.00;99.90
1948;DHT22;974;52.400;9.818;2022-09-09T14:33:40;18.90;99.90
1948;DHT22;974;52.400;9.818;2022-09-09T14:36:06;18.90;99.90
1948;DHT22;974;52.400;9.818;2022-09-09T14:38:36;18.90;99.90
1948;DHT22;974;52.400;9.818;2022-09-09T14:41:05;18.90;99.90
1948;DHT22;974;52.400;9.818;2022-09-09T14:43:31;18.80;99.90
1948;DHT22;974;52.400;9.818;2022-09-09T14:46:04;18.90;99.90
1948;DHT22;974;52.400;9.818;2022-09-09T14:48:31;18.80;99.90
1948;DHT22;974;52.400;9.818;2022-09-09T14:50:56;18.80;99.90
1948;DHT22;974;52.400;9.818;2022-09-09T14:53:22;18.90;99.90
1948;DHT22;974;52.400;9.818;2022-09-09T14:55:47;19.00;99.90
1948;DHT22;974;52.400;9.818;2022-09-09T14:58:13;19.10;99.90
1948;DHT22;974;52.400;9.818;2022-09-09T15:00:38;19.10;99.90
1948;DHT22;974;52.400;9.818;2022-09-09T15:03:04;19.20;99.90
1948;DHT22;974;52.400;9.818;2022-09-09T15:05:29;19.30;99.90
1948;DHT22;974;52.400;9.818;2022-09-09T15:07:57;19.30;99.90
1948;DHT22;974;52.400;9.818;2022-09-09T15:10:23;19.30;99.90
1948;DHT22;974;52.400;9.818;2022-09-09T15:12:49;19.30;99.90
1948;DHT22;974;52.400;9.818;2022-09-09T15:15:14;19.40;99.90
1948;DHT22;974;52.400;9.818;2022-09-09T15:17:40;19.30;99.90
1948;DHT22;974;52.400;9.818;2022-09-09T15:20:06;19.30;99.90
1948;DHT22;974;52.400;9.818;2022-09-09T15:22:32;19.30;99.90
1948;DHT22;974;52.400;9.818;2022-09-09T15:24:59;19.30;99.90
1948;DHT22;974;52.400;9.818;2022-09-09T15:27:24;19.30;99.90
1948;DHT22;974;52.400;9.818;2022-09-09T15:29:50;19.40;99.90
1948;DHT22;974;52.400;9.818;2022-09-09T15:32:17;19.40;99.90
1948;DHT22;974;52.400;9.818;2022-09-09T15:34:43;19.40;99.90
1948;DHT22;974;52.400;9.818;2022-09-09T15:37:10;19.30;99.90
1948;DHT22;974;52.400;9.818;2022-09-09T15:39:38;19.30;99.90
1948;DHT22;974;52.400;9.818;2022-09-09T15:42:04;19.30;99.90
1948;DHT22;974;52.400;9.818;2022-09-09T15:44:30;19.30;99.90
1948;DHT22;974;52.400;9.818;2022-09-09T15:47:03;19.20;99.90
1948;DHT22;974;52.400;9.818;2022-09-09T15:49:28;19.20;99.90
1948;DHT22;974;52.400;9.818;2022-09-09T15:51:56;19.30;99.90
1948;DHT22;974;52.400;9.818;2022-09-09T15:54:23;19.30;99.90
1948;DHT22;974;52.400;9.818;2022-09-09T15:56:54;19.30;99.90
1948;DHT22;974;52.400;9.818;2022-09-09T15:59:22;19.40;99.90
1948;DHT22;974;52.400;9.818;2022-09-09T16:01:48;19.40;99.90
1948;DHT22;974;52.400;9.818;2022-09-09T16:04:17;19.40;99.90
1948;DHT22;974;52.400;9.818;2022-09-09T16:06:52;19.40;99.90
1948;DHT22;974;52.400;9.818;2022-09-09T16:09:18;19.30;99.90
1948;DHT22;974;52.400;9.818;2022-09-09T16:11:43;19.30;99.90
1948;DHT22;974;52.400;9.818;2022-09-09T16:14:09;19.20;99.90
1948;DHT22;974;52.400;9.818;2022-09-09T16:16:36;19.10;99.90
1948;DHT22;974;52.400;9.818;2022-09-09T16:19:10;19.20;99.90
1948;DHT22;974;52.400;9.818;2022-09-09T16:21:44;19.10;99.90
1948;DHT22;974;52.400;9.818;2022-09-09T16:24:12;19.00;99.90
1948;DHT22;974;52.400;9.818;2022-09-09T16:26:41;19.10;99.90
1948;DHT22;974;52.400;9.818;2022-09-09T16:29:11;19.10;99.90
1948;DHT22;974;52.400;9.818;2022-09-09T16:31:37;19.20;99.90
1948;DHT22;974;52.400;9.818;2022-09-09T16:34:03;19.30;99.90
1948;DHT22;974;52.400;9.818;2022-09-09T16:36:30;19.30;99.90
1948;DHT22;974;52.400;9.818;2022-09-09T16:39:01;19.30;99.90
1948;DHT22;974;52.400;9.818;2022-09-09T16:41:28;19.30;99.90
1948;DHT22;974;52.400;9.818;2022-09-09T16:44:02;19.20;99.90
1948;DHT22;974;52.400;9.818;2022-09-09T16:46:30;19.10;99.90
1948;DHT22;974;52.400;9.818;2022-09-09T16:48:57;19.10;99.90
1948;DHT22;974;52.400;9.818;2022-09-09T16:51:28;19.00;99.90
1948;DHT22;974;52.400;9.818;2022-09-09T16:53:55;18.90;99.90
1948;DHT22;974;52.400;9.818;2022-09-09T16:56:23;18.90;99.90
1948;DHT22;974;52.400;9.818;2022-09-09T16:58:54;18.80;99.90
1948;DHT22;974;52.400;9.818;2022-09-09T17:01:21;18.70;99.90
1948;DHT22;974;52.400;9.818;2022-09-09T17:03:47;18.60;99.90
1948;DHT22;974;52.400;9.818;2022-09-09T17:06:14;18.50;99.90
1948;DHT22;974;52.400;9.818;2022-09-09T17:08:40;18.40;99.90
1948;DHT22;974;52.400;9.818;2022-09-09T17:11:17;18.40;99.90
1948;DHT22;974;52.400;9.818;2022-09-09T17:13:44;18.30;99.90
1948;DHT22;974;52.400;9.818;2022-09-09T17:16:10;18.20;99.90
1948;DHT22;974;52.400;9.818;2022-09-09T17:18:36;18.20;99.90
1948;DHT22;974;52.400;9.818;2022-09-09T17:21:06;18.20;99.90
1948;DHT22;974;52.400;9.818;2022-09-09T17:23:34;18.10;99.90
1948;DHT22;974;52.400;9.818;2022-09-09T17:26:00;18.10;99.90
1948;DHT22;974;52.400;9.818;2022-09-09T17:28:27;18.10;99.90
1948;DHT22;974;52.400;9.818;2022-09-09T17:30:57;18.00;99.90
1948;DHT22;974;52.400;9.818;2022-09-09T17:33:25;18.10;99.90
1948;DHT22;974;52.400;9.818;2022-09-09T17:35:52;18.00;99.90
1948;DHT22;974;52.400;9.818;2022-09-09T17:38:18;18.00;99.90
1948;DHT22;974;52.400;9.818;2022-09-09T17:40:43;18.00;99.90
1948;DHT22;974;52.400;9.818;2022-09-09T17:43:09;18.00;99.90
1948;DHT22;974;52.400;9.818;2022-09-09T17:45:34;18.00;99.90
1948;DHT22;974;52.400;9.818;2022-09-09T17:48:00;17.90;99.90
1948;DHT22;974;52.400;9.818;2022-09-09T17:50:25;17.90;99.90
1948;DHT22;974;52.400;9.818;2022-09-09T17:52:51;17.80;99.90
1948;DHT22;974;52.400;9.818;2022-09-09T17:55:17;17.80;99.90
1948;DHT22;974;52.400;9.818;2022-09-09T17:57:42;17.80;99.90
1948;DHT22;974;52.400;9.818;2022-09-09T18:00:08;17.80;99.90
1948;DHT22;974;52.400;9.818;2022-09-09T18:02:34;17.70;99.90
1948;DHT22;974;52.400;9.818;2022-09-09T18:05:00;17.80;99.90
1948;DHT22;974;52.400;9.818;2022-09-09T18:07:26;17.80;99.90
1948;DHT22;974;52.400;9.818;2022-09-09T18:09:52;17.80;99.90
1948;DHT22;974;52.400;9.818;2022-09-09T18:12:17;17.70;99.90
1948;DHT22;974;52.400;9.818;2022-09-09T18:14:43;17.70;99.90
1948;DHT22;974;52.400;9.818;2022-09-09T18:17:08;17.70;99.90
1948;DHT22;974;52.400;9.818;2022-09-09T18:19:35;17.60;99.90
1948;DHT22;974;52.400;9.818;2022-09-09T18:22:03;17.60;99.90